sensor_id;sensor_type;location;lat;lon;timestamp;temperature;humidity
72128;DHT22;60000;51.030;7.024;2022-12-18T00:00:47;-6.26;90.99
72128;DHT22;60000;51.030;7.024;2022-12-18T00:03:15;-6.14;91.89
72128;DHT22;60000;51.030;7.024;2022-12-18T00:05:51;-6.12;91.24
72128;DHT22;60000;51.030;7.024;2022-12-18T00:08:17;-6.11;91.44
72128;DHT22;60000;51.030;7.024;2022-12-18T00:10:43;-6.05;91.42
72128;DHT22;60000;51.030;7.024;2022-12-18T00:13:08;-5.99;91.28
72128;DHT22;60000;51.030;7.024;2022-12-18T00:15:34;-5.94;91.50
72128;DHT22;60000;51.030;7.024;2022-12-18T00:18:00;-5.88;91.19
72128;DHT22;60000;51.030;7.024;2022-12-18T00:20:25;-5.77;91.19
72128;DHT22;60000;51.030;7.024;2022-12-18T00:22:52;-5.74;90.82
72128;DHT22;60000;51.030;7.024;2022-12-18T00:25:18;-5.71;90.58
72128;DHT22;60000;51.030;7.024;2022-12-18T00:27:43;-5.77;89.94
72128;DHT22;60000;51.030;7.024;2022-12-18T00:30:09;-5.77;89.88
72128;DHT22;60000;51.030;7.024;2022-12-18T00:32:34;-5.80;89.86
72128;DHT22;60000;51.030;7.024;2022-12-18T00:34:59;-5.74;90.31
72128;DHT22;60000;51.030;7.024;2022-12-18T00:37:25;-5.71;90.29
72128;DHT22;60000;51.030;7.024;2022-12-18T00:39:50;-5.73;90.15
72128;DHT22;60000;51.030;7.024;2022-12-18T00:42:15;-5.70;90.08
72128;DHT22;60000;51.030;7.024;2022-12-18T00:44:59;-5.60;90.44
72128;DHT22;60000;51.030;7.024;2022-12-18T00:47:24;-5.57;90.11
72128;DHT22;60000;51.030;7.024;2022-12-18T00:49:50;-5.54;89.82
72128;DHT22;60000;51.030;7.024;2022-12-18T00:52:15;-5.52;89.77
72128;DHT22;60000;51.030;7.024;2022-12-18T00:54:41;-5.49;89.57
72128;DHT22;60000;51.030;7.024;2022-12-18T00:57:06;-5.42;89.85
72128;DHT22;60000;51.030;7.024;2022-12-18T00:59:31;-5.33;89.60
72128;DHT22;60000;51.030;7.024;2022-12-18T01:01:56;-5.30;89.00
72128;DHT22;60000;51.030;7.024;2022-12-18T01:04:22;-5.32;88.81
72128;DHT22;60000;51.030;7.024;2022-12-18T01:06:48;-5.30;88.75
72128;DHT22;60000;51.030;7.024;2022-12-18T01:09:13;-5.33;88.55
72128;DHT22;60000;51.030;7.024;2022-12-18T01:11:39;-5.33;88.44
72128;DHT22;60000;51.030;7.024;2022-12-18T01:14:04;-5.33;88.54
72128;DHT22;60000;51.030;7.024;2022-12-18T01:16:30;-5.36;88.09
72128;DHT22;60000;51.030;7.024;2022-12-18T01:18:56;-5.39;88.20
72128;DHT22;60000;51.030;7.024;2022-12-18T01:21:22;-5.42;88.47
72128;DHT22;60000;51.030;7.024;2022-12-18T01:23:52;-5.40;88.42
72128;DHT22;60000;51.030;7.024;2022-12-18T01:26:17;-5.47;88.16
72128;DHT22;60000;51.030;7.024;2022-12-18T01:28:43;-5.52;87.84
72128;DHT22;60000;51.030;7.024;2022-12-18T01:33:47;-5.59;88.05
72128;DHT22;60000;51.030;7.024;2022-12-18T01:36:20;-5.62;88.03
72128;DHT22;60000;51.030;7.024;2022-12-18T01:38:46;-5.63;88.05
72128;DHT22;60000;51.030;7.024;2022-12-18T01:41:12;-5.60;88.38
72128;DHT22;60000;51.030;7.024;2022-12-18T01:43:57;-5.59;88.41
72128;DHT22;60000;51.030;7.024;2022-12-18T01:46:24;-5.53;88.76
72128;DHT22;60000;51.030;7.024;2022-12-18T01:48:53;-5.57;87.97
72128;DHT22;60000;51.030;7.024;2022-12-18T01:51:20;-5.57;88.31
72128;DHT22;60000;51.030;7.024;2022-12-18T01:53:46;-5.62;87.93
72128;DHT22;60000;51.030;7.024;2022-12-18T01:56:14;-5.66;87.90
72128;DHT22;60000;51.030;7.024;2022-12-18T01:58:48;-5.67;88.24
72128;DHT22;60000;51.030;7.024;2022-12-18T02:01:15;-5.74;87.87
72128;DHT22;60000;51.030;7.024;2022-12-18T02:03:44;-5.74;88.00
72128;DHT22;60000;51.030;7.024;2022-12-18T02:06:20;-5.78;88.36
72128;DHT22;60000;51.030;7.024;2022-12-18T02:11:41;-5.83;87.99
72128;DHT22;60000;51.030;7.024;2022-12-18T02:14:23;-5.87;88.01
72128;DHT22;60000;51.030;7.024;2022-12-18T02:25:17;-6.04;88.03
72128;DHT22;60000;51.030;7.024;2022-12-18T02:27:47;-6.11;88.01
72128;DHT22;60000;51.030;7.024;2022-12-18T02:30:14;-6.12;88.20
72128;DHT22;60000;51.030;7.024;2022-12-18T02:32:42;-6.22;87.94
72128;DHT22;60000;51.030;7.024;2022-12-18T02:35:16;-6.23;88.41
72128;DHT22;60000;51.030;7.024;2022-12-18T02:37:43;-6.29;88.14
72128;DHT22;60000;51.030;7.024;2022-12-18T02:40:11;-6.37;87.90
72128;DHT22;60000;51.030;7.024;2022-12-18T02:42:36;-6.42;88.55
72128;DHT22;60000;51.030;7.024;2022-12-18T02:45:02;-6.46;88.42
72128;DHT22;60000;51.030;7.024;2022-12-18T02:47:31;-6.53;88.24
72128;DHT22;60000;51.030;7.024;2022-12-18T02:55:46;-6.50;89.30
72128;DHT22;60000;51.030;7.024;2022-12-18T02:57:56;-6.46;89.36
72128;DHT22;60000;51.030;7.024;2022-12-18T03:00:26;-6.47;89.41
72128;DHT22;60000;51.030;7.024;2022-12-18T03:03:02;-6.47;89.33
72128;DHT22;60000;51.030;7.024;2022-12-18T03:05:34;-6.47;89.48
72128;DHT22;60000;51.030;7.024;2022-12-18T03:08:12;-6.52;89.04
72128;DHT22;60000;51.030;7.024;2022-12-18T03:10:43;-6.60;88.71
72128;DHT22;60000;51.030;7.024;2022-12-18T03:13:18;-6.63;88.77
72128;DHT22;60000;51.030;7.024;2022-12-18T03:15:48;-6.63;89.61
72128;DHT22;60000;51.030;7.024;2022-12-18T03:18:19;-6.63;89.09
72128;DHT22;60000;51.030;7.024;2022-12-18T03:20:47;-6.72;88.90
72128;DHT22;60000;51.030;7.024;2022-12-18T03:23:24;-6.77;89.04
72128;DHT22;60000;51.030;7.024;2022-12-18T03:25:53;-6.76;89.16
72128;DHT22;60000;51.030;7.024;2022-12-18T03:28:22;-6.79;89.61
72128;DHT22;60000;51.030;7.024;2022-12-18T03:30:50;-6.80;89.40
72128;DHT22;60000;51.030;7.024;2022-12-18T03:33:23;-6.81;89.24
72128;DHT22;60000;51.030;7.024;2022-12-18T03:35:50;-6.85;89.46
72128;DHT22;60000;51.030;7.024;2022-12-18T03:38:16;-6.85;89.77
72128;DHT22;60000;51.030;7.024;2022-12-18T03:43:42;-6.87;89.65
72128;DHT22;60000;51.030;7.024;2022-12-18T03:46:17;-6.87;89.78
72128;DHT22;60000;51.030;7.024;2022-12-18T03:48:48;-6.91;89.28
72128;DHT22;60000;51.030;7.024;2022-12-18T03:51:38;-6.94;89.44
72128;DHT22;60000;51.030;7.024;2022-12-18T03:54:06;-6.94;89.64
72128;DHT22;60000;51.030;7.024;2022-12-18T03:56:38;-6.95;90.03
72128;DHT22;60000;51.030;7.024;2022-12-18T03:59:05;-6.97;89.74
72128;DHT22;60000;51.030;7.024;2022-12-18T04:01:35;-7.03;89.44
72128;DHT22;60000;51.030;7.024;2022-12-18T04:04:02;-7.07;89.42
72128;DHT22;60000;51.030;7.024;2022-12-18T04:06:29;-7.14;89.19
72128;DHT22;60000;51.030;7.024;2022-12-18T04:08:57;-7.22;88.95
72128;DHT22;60000;51.030;7.024;2022-12-18T04:11:23;-7.31;88.84
72128;DHT22;60000;51.030;7.024;2022-12-18T04:13:48;-7.36;88.84
72128;DHT22;60000;51.030;7.024;2022-12-18T04:16:13;-7.40;89.46
72128;DHT22;60000;51.030;7.024;2022-12-18T04:18:39;-7.46;89.30
72128;DHT22;60000;51.030;7.024;2022-12-18T04:21:04;-7.38;90.55
72128;DHT22;60000;51.030;7.024;2022-12-18T04:23:29;-7.31;91.17
72128;DHT22;60000;51.030;7.024;2022-12-18T04:25:55;-7.19;91.40
72128;DHT22;60000;51.030;7.024;2022-12-18T04:28:20;-7.11;91.35
72128;DHT22;60000;51.030;7.024;2022-12-18T04:30:46;-7.09;90.82
72128;DHT22;60000;51.030;7.024;2022-12-18T04:33:17;-7.11;90.46
72128;DHT22;60000;51.030;7.024;2022-12-18T04:35:43;-7.14;90.54
72128;DHT22;60000;51.030;7.024;2022-12-18T04:38:09;-7.14;90.59
72128;DHT22;60000;51.030;7.024;2022-12-18T04:40:35;-7.18;90.51
72128;DHT22;60000;51.030;7.024;2022-12-18T04:43:00;-7.16;90.73
72128;DHT22;60000;51.030;7.024;2022-12-18T04:45:26;-7.18;91.05
72128;DHT22;60000;51.030;7.024;2022-12-18T04:47:51;-7.19;90.84
72128;DHT22;60000;51.030;7.024;2022-12-18T04:50:17;-7.18;90.93
72128;DHT22;60000;51.030;7.024;2022-12-18T04:52:42;-7.21;90.90
72128;DHT22;60000;51.030;7.024;2022-12-18T04:55:07;-7.21;91.01
72128;DHT22;60000;51.030;7.024;2022-12-18T04:57:33;-7.19;91.14
72128;DHT22;60000;51.030;7.024;2022-12-18T04:59:58;-7.19;91.20
72128;DHT22;60000;51.030;7.024;2022-12-18T05:02:23;-7.21;91.09
72128;DHT22;60000;51.030;7.024;2022-12-18T05:04:48;-7.24;90.89
72128;DHT22;60000;51.030;7.024;2022-12-18T05:07:14;-7.25;90.79
72128;DHT22;60000;51.030;7.024;2022-12-18T05:09:40;-7.28;91.02
72128;DHT22;60000;51.030;7.024;2022-12-18T05:12:05;-7.31;91.05
72128;DHT22;60000;51.030;7.024;2022-12-18T05:14:31;-7.31;90.79
72128;DHT22;60000;51.030;7.024;2022-12-18T05:16:56;-7.32;91.64
72128;DHT22;60000;51.030;7.024;2022-12-18T05:19:21;-7.29;91.76
72128;DHT22;60000;51.030;7.024;2022-12-18T05:21:47;-7.22;92.05
72128;DHT22;60000;51.030;7.024;2022-12-18T05:24:12;-7.25;91.42
72128;DHT22;60000;51.030;7.024;2022-12-18T05:26:37;-7.25;91.92
72128;DHT22;60000;51.030;7.024;2022-12-18T05:29:03;-7.26;91.27
72128;DHT22;60000;51.030;7.024;2022-12-18T05:31:28;-7.31;90.96
72128;DHT22;60000;51.030;7.024;2022-12-18T05:33:54;-7.35;91.17
72128;DHT22;60000;51.030;7.024;2022-12-18T05:36:19;-7.38;91.08
72128;DHT22;60000;51.030;7.024;2022-12-18T05:38:44;-7.36;91.97
72128;DHT22;60000;51.030;7.024;2022-12-18T05:41:10;-7.36;91.42
72128;DHT22;60000;51.030;7.024;2022-12-18T05:43:37;-7.39;91.17
72128;DHT22;60000;51.030;7.024;2022-12-18T05:46:07;-7.45;90.94
72128;DHT22;60000;51.030;7.024;2022-12-18T05:48:33;-7.49;90.76
72128;DHT22;60000;51.030;7.024;2022-12-18T05:51:10;-7.55;90.97
72128;DHT22;60000;51.030;7.024;2022-12-18T05:53:36;-7.57;90.95
72128;DHT22;60000;51.030;7.024;2022-12-18T05:56:06;-7.67;90.80
72128;DHT22;60000;51.030;7.024;2022-12-18T05:58:33;-7.66;91.00
72128;DHT22;60000;51.030;7.024;2022-12-18T06:01:06;-7.69;91.16
72128;DHT22;60000;51.030;7.024;2022-12-18T06:03:32;-7.73;91.06
72128;DHT22;60000;51.030;7.024;2022-12-18T06:05:57;-7.73;91.20
72128;DHT22;60000;51.030;7.024;2022-12-18T06:08:22;-7.79;91.10
72128;DHT22;60000;51.030;7.024;2022-12-18T06:10:51;-7.82;91.23
72128;DHT22;60000;51.030;7.024;2022-12-18T06:13:20;-7.80;91.49
72128;DHT22;60000;51.030;7.024;2022-12-18T06:15:45;-7.79;91.51
72128;DHT22;60000;51.030;7.024;2022-12-18T06:18:11;-7.82;91.52
72128;DHT22;60000;51.030;7.024;2022-12-18T06:20:36;-7.86;91.51
72128;DHT22;60000;51.030;7.024;2022-12-18T06:23:05;-7.87;91.22
72128;DHT22;60000;51.030;7.024;2022-12-18T06:25:30;-7.80;91.97
72128;DHT22;60000;51.030;7.024;2022-12-18T06:27:55;-7.80;92.30
72128;DHT22;60000;51.030;7.024;2022-12-18T06:30:21;-7.76;92.24
72128;DHT22;60000;51.030;7.024;2022-12-18T06:32:48;-7.72;92.54
72128;DHT22;60000;51.030;7.024;2022-12-18T06:35:14;-7.70;92.26
72128;DHT22;60000;51.030;7.024;2022-12-18T06:37:39;-7.60;93.13
72128;DHT22;60000;51.030;7.024;2022-12-18T06:40:05;-7.52;93.30
72128;DHT22;60000;51.030;7.024;2022-12-18T06:42:31;-7.45;93.25
72128;DHT22;60000;51.030;7.024;2022-12-18T06:44:57;-7.40;92.86
72128;DHT22;60000;51.030;7.024;2022-12-18T06:47:22;-7.34;93.08
72128;DHT22;60000;51.030;7.024;2022-12-18T06:49:47;-7.32;92.52
72128;DHT22;60000;51.030;7.024;2022-12-18T06:52:13;-7.34;91.92
72128;DHT22;60000;51.030;7.024;2022-12-18T06:54:41;-7.38;91.59
72128;DHT22;60000;51.030;7.024;2022-12-18T06:57:06;-7.42;91.63
72128;DHT22;60000;51.030;7.024;2022-12-18T06:59:32;-7.46;91.67
72128;DHT22;60000;51.030;7.024;2022-12-18T07:02:01;-7.45;92.15
72128;DHT22;60000;51.030;7.024;2022-12-18T07:04:30;-7.42;92.37
72128;DHT22;60000;51.030;7.024;2022-12-18T07:06:56;-7.45;92.13
72128;DHT22;60000;51.030;7.024;2022-12-18T07:09:22;-7.36;92.86
72128;DHT22;60000;51.030;7.024;2022-12-18T07:11:47;-7.34;92.69
72128;DHT22;60000;51.030;7.024;2022-12-18T07:14:13;-7.28;92.68
72128;DHT22;60000;51.030;7.024;2022-12-18T07:16:38;-7.19;92.73
72128;DHT22;60000;51.030;7.024;2022-12-18T07:19:03;-7.18;92.32
72128;DHT22;60000;51.030;7.024;2022-12-18T07:21:29;-7.18;92.18
72128;DHT22;60000;51.030;7.024;2022-12-18T07:23:54;-7.14;92.39
72128;DHT22;60000;51.030;7.024;2022-12-18T07:26:20;-7.12;92.18
72128;DHT22;60000;51.030;7.024;2022-12-18T07:28:46;-7.09;92.35
72128;DHT22;60000;51.030;7.024;2022-12-18T07:31:15;-7.04;92.23
72128;DHT22;60000;51.030;7.024;2022-12-18T07:33:41;-7.03;92.09
72128;DHT22;60000;51.030;7.024;2022-12-18T07:36:07;-7.01;91.91
72128;DHT22;60000;51.030;7.024;2022-12-18T07:38:34;-7.01;91.75
72128;DHT22;60000;51.030;7.024;2022-12-18T07:41:04;-7.01;91.39
72128;DHT22;60000;51.030;7.024;2022-12-18T07:43:30;-7.04;91.35
72128;DHT22;60000;51.030;7.024;2022-12-18T07:45:56;-7.07;91.21
72128;DHT22;60000;51.030;7.024;2022-12-18T07:48:21;-7.08;91.34
72128;DHT22;60000;51.030;7.024;2022-12-18T07:50:47;-7.08;91.45
72128;DHT22;60000;51.030;7.024;2022-12-18T07:53:12;-7.12;91.31
72128;DHT22;60000;51.030;7.024;2022-12-18T07:55:37;-7.12;91.39
72128;DHT22;60000;51.030;7.024;2022-12-18T07:58:03;-7.14;91.23
72128;DHT22;60000;51.030;7.024;2022-12-18T08:00:30;-7.16;91.35
72128;DHT22;60000;51.030;7.024;2022-12-18T08:02:55;-7.15;91.51
72128;DHT22;60000;51.030;7.024;2022-12-18T08:05:20;-7.12;92.10
72128;DHT22;60000;51.030;7.024;2022-12-18T08:07:46;-7.08;92.05
72128;DHT22;60000;51.030;7.024;2022-12-18T08:10:12;-6.97;92.42
72128;DHT22;60000;51.030;7.024;2022-12-18T08:12:37;-6.88;92.39
72128;DHT22;60000;51.030;7.024;2022-12-18T08:15:03;-6.79;92.40
72128;DHT22;60000;51.030;7.024;2022-12-18T08:17:28;-6.69;92.13
72128;DHT22;60000;51.030;7.024;2022-12-18T08:19:53;-6.62;92.07
72128;DHT22;60000;51.030;7.024;2022-12-18T08:22:18;-6.52;91.72
72128;DHT22;60000;51.030;7.024;2022-12-18T08:24:44;-6.47;91.60
72128;DHT22;60000;51.030;7.024;2022-12-18T08:27:10;-6.42;91.53
72128;DHT22;60000;51.030;7.024;2022-12-18T08:29:35;-6.37;91.45
72128;DHT22;60000;51.030;7.024;2022-12-18T08:32:00;-6.30;91.42
72128;DHT22;60000;51.030;7.024;2022-12-18T08:34:26;-6.26;91.41
72128;DHT22;60000;51.030;7.024;2022-12-18T08:36:51;-6.16;91.43
72128;DHT22;60000;51.030;7.024;2022-12-18T08:39:16;-6.12;91.40
72128;DHT22;60000;51.030;7.024;2022-12-18T08:41:42;-6.04;91.46
72128;DHT22;60000;51.030;7.024;2022-12-18T08:44:07;-5.95;91.63
72128;DHT22;60000;51.030;7.024;2022-12-18T08:46:56;-5.84;91.83
72128;DHT22;60000;51.030;7.024;2022-12-18T08:49:21;-5.69;91.81
72128;DHT22;60000;51.030;7.024;2022-12-18T08:51:47;-5.54;92.06
72128;DHT22;60000;51.030;7.024;2022-12-18T08:54:12;-5.34;92.35
72128;DHT22;60000;51.030;7.024;2022-12-18T08:56:38;-5.13;92.51
72128;DHT22;60000;51.030;7.024;2022-12-18T08:59:08;-4.94;92.45
72128;DHT22;60000;51.030;7.024;2022-12-18T09:01:33;-4.73;92.46
72128;DHT22;60000;51.030;7.024;2022-12-18T09:03:58;-4.52;92.26
72128;DHT22;60000;51.030;7.024;2022-12-18T09:06:24;-4.36;91.61
72128;DHT22;60000;51.030;7.024;2022-12-18T09:08:51;-4.12;91.24
72128;DHT22;60000;51.030;7.024;2022-12-18T09:11:22;-3.95;90.43
72128;DHT22;60000;51.030;7.024;2022-12-18T09:13:48;-3.84;90.08
72128;DHT22;60000;51.030;7.024;2022-12-18T09:16:14;-3.74;89.31
72128;DHT22;60000;51.030;7.024;2022-12-18T09:18:39;-3.61;89.16
72128;DHT22;60000;51.030;7.024;2022-12-18T09:21:09;-3.48;88.61
72128;DHT22;60000;51.030;7.024;2022-12-18T09:23:35;-3.40;88.43
72128;DHT22;60000;51.030;7.024;2022-12-18T09:26:00;-3.30;88.10
72128;DHT22;60000;51.030;7.024;2022-12-18T09:28:26;-3.19;87.82
72128;DHT22;60000;51.030;7.024;2022-12-18T09:30:52;-3.13;86.12
72128;DHT22;60000;51.030;7.024;2022-12-18T09:33:17;-2.97;86.04
72128;DHT22;60000;51.030;7.024;2022-12-18T09:35:44;-2.83;86.11
72128;DHT22;60000;51.030;7.024;2022-12-18T09:38:13;-2.71;85.26
72128;DHT22;60000;51.030;7.024;2022-12-18T09:40:44;-2.64;83.86
72128;DHT22;60000;51.030;7.024;2022-12-18T09:43:18;-2.50;83.46
72128;DHT22;60000;51.030;7.024;2022-12-18T09:45:49;-2.37;82.35
72128;DHT22;60000;51.030;7.024;2022-12-18T09:48:21;-2.24;81.45
72128;DHT22;60000;51.030;7.024;2022-12-18T09:50:50;-2.14;81.56
72128;DHT22;60000;51.030;7.024;2022-12-18T09:53:20;-1.96;81.30
72128;DHT22;60000;51.030;7.024;2022-12-18T09:55:48;-1.86;79.19
72128;DHT22;60000;51.030;7.024;2022-12-18T09:58:41;-1.71;78.75
72128;DHT22;60000;51.030;7.024;2022-12-18T10:01:19;-1.62;77.83
72128;DHT22;60000;51.030;7.024;2022-12-18T10:03:45;-1.58;77.91
72128;DHT22;60000;51.030;7.024;2022-12-18T10:06:32;-1.50;76.20
72128;DHT22;60000;51.030;7.024;2022-12-18T10:14:22;-1.18;75.68
72128;DHT22;60000;51.030;7.024;2022-12-18T10:19:36;-1.04;75.45
72128;DHT22;60000;51.030;7.024;2022-12-18T10:24:55;-0.86;73.97
72128;DHT22;60000;51.030;7.024;2022-12-18T10:27:26;-0.77;73.81
72128;DHT22;60000;51.030;7.024;2022-12-18T10:29:52;-0.62;73.68
72128;DHT22;60000;51.030;7.024;2022-12-18T10:32:24;-0.59;73.13
72128;DHT22;60000;51.030;7.024;2022-12-18T10:34:54;-0.53;72.28
72128;DHT22;60000;51.030;7.024;2022-12-18T10:37:22;-0.45;72.04
72128;DHT22;60000;51.030;7.024;2022-12-18T10:42:33;-0.36;70.82
72128;DHT22;60000;51.030;7.024;2022-12-18T10:47:33;-0.21;71.16
72128;DHT22;60000;51.030;7.024;2022-12-18T10:49:59;-0.19;70.55
72128;DHT22;60000;51.030;7.024;2022-12-18T10:52:25;-0.15;70.46
72128;DHT22;60000;51.030;7.024;2022-12-18T10:55:01;-0.10;69.44
72128;DHT22;60000;51.030;7.024;2022-12-18T10:57:36;-0.08;68.90
72128;DHT22;60000;51.030;7.024;2022-12-18T11:00:23;-0.08;69.37
72128;DHT22;60000;51.030;7.024;2022-12-18T11:02:50;-0.04;69.46
72128;DHT22;60000;51.030;7.024;2022-12-18T11:05:28;0.00;70.16
72128;DHT22;60000;51.030;7.024;2022-12-18T11:07:54;0.02;69.08
72128;DHT22;60000;51.030;7.024;2022-12-18T11:10:25;0.03;69.60
72128;DHT22;60000;51.030;7.024;2022-12-18T11:12:51;0.06;68.72
72128;DHT22;60000;51.030;7.024;2022-12-18T11:15:20;0.09;69.63
72128;DHT22;60000;51.030;7.024;2022-12-18T11:17:48;0.07;68.91
72128;DHT22;60000;51.030;7.024;2022-12-18T11:20:23;0.10;69.10
72128;DHT22;60000;51.030;7.024;2022-12-18T11:23:00;0.11;68.85
72128;DHT22;60000;51.030;7.024;2022-12-18T11:25:26;0.14;68.93
72128;DHT22;60000;51.030;7.024;2022-12-18T11:28:02;0.18;69.39
72128;DHT22;60000;51.030;7.024;2022-12-18T11:30:33;0.18;69.21
72128;DHT22;60000;51.030;7.024;2022-12-18T11:33:14;0.23;68.41
72128;DHT22;60000;51.030;7.024;2022-12-18T11:35:50;0.24;67.90
72128;DHT22;60000;51.030;7.024;2022-12-18T11:38:28;0.24;68.26
72128;DHT22;60000;51.030;7.024;2022-12-18T11:40:59;0.23;68.53
72128;DHT22;60000;51.030;7.024;2022-12-18T11:43:29;0.26;68.77
72128;DHT22;60000;51.030;7.024;2022-12-18T11:46:05;0.24;68.59
72128;DHT22;60000;51.030;7.024;2022-12-18T11:48:41;0.27;68.07
72128;DHT22;60000;51.030;7.024;2022-12-18T11:51:13;0.26;68.13
72128;DHT22;60000;51.030;7.024;2022-12-18T11:53:41;0.23;67.98
72128;DHT22;60000;51.030;7.024;2022-12-18T11:56:43;0.24;67.05
72128;DHT22;60000;51.030;7.024;2022-12-18T12:01:46;0.13;68.30
72128;DHT22;60000;51.030;7.024;2022-12-18T12:04:35;0.11;67.75
72128;DHT22;60000;51.030;7.024;2022-12-18T12:18:01;0.06;68.09
72128;DHT22;60000;51.030;7.024;2022-12-18T12:23:01;-0.05;68.53
72128;DHT22;60000;51.030;7.024;2022-12-18T12:25:52;-0.08;68.49
72128;DHT22;60000;51.030;7.024;2022-12-18T12:28:35;-0.10;68.98
72128;DHT22;60000;51.030;7.024;2022-12-18T12:31:21;-0.10;69.05
72128;DHT22;60000;51.030;7.024;2022-12-18T12:34:05;-0.08;68.56
72128;DHT22;60000;51.030;7.024;2022-12-18T12:39:40;-0.15;69.34
72128;DHT22;60000;51.030;7.024;2022-12-18T12:42:32;-0.14;69.21
72128;DHT22;60000;51.030;7.024;2022-12-18T12:45:27;-0.19;69.03
72128;DHT22;60000;51.030;7.024;2022-12-18T12:47:54;-0.22;68.90
72128;DHT22;60000;51.030;7.024;2022-12-18T12:50:22;-0.24;68.97
72128;DHT22;60000;51.030;7.024;2022-12-18T12:52:51;-0.19;68.80
72128;DHT22;60000;51.030;7.024;2022-12-18T12:55:22;-0.26;69.09
72128;DHT22;60000;51.030;7.024;2022-12-18T12:58:54;-0.25;68.80
72128;DHT22;60000;51.030;7.024;2022-12-18T13:01:15;-0.25;69.09
72128;DHT22;60000;51.030;7.024;2022-12-18T13:06:33;-0.29;68.91
72128;DHT22;60000;51.030;7.024;2022-12-18T13:09:00;-0.28;69.05
72128;DHT22;60000;51.030;7.024;2022-12-18T13:14:21;-0.31;68.43
72128;DHT22;60000;51.030;7.024;2022-12-18T13:16:47;-0.28;68.40
72128;DHT22;60000;51.030;7.024;2022-12-18T13:19:22;-0.32;68.86
72128;DHT22;60000;51.030;7.024;2022-12-18T13:21:53;-0.29;69.06
72128;DHT22;60000;51.030;7.024;2022-12-18T13:24:30;-0.26;68.53
72128;DHT22;60000;51.030;7.024;2022-12-18T13:26:56;-0.29;69.23
72128;DHT22;60000;51.030;7.024;2022-12-18T13:29:41;-0.28;68.89
72128;DHT22;60000;51.030;7.024;2022-12-18T13:32:23;-0.31;69.32
72128;DHT22;60000;51.030;7.024;2022-12-18T13:34:49;-0.34;69.25
72128;DHT22;60000;51.030;7.024;2022-12-18T13:37:42;-0.32;69.15
72128;DHT22;60000;51.030;7.024;2022-12-18T13:43:23;-0.36;69.28
72128;DHT22;60000;51.030;7.024;2022-12-18T13:46:02;-0.31;68.52
72128;DHT22;60000;51.030;7.024;2022-12-18T13:48:31;-0.34;68.74
72128;DHT22;60000;51.030;7.024;2022-12-18T13:51:08;-0.29;68.69
72128;DHT22;60000;51.030;7.024;2022-12-18T13:53:57;-0.34;68.97
72128;DHT22;60000;51.030;7.024;2022-12-18T13:56:32;-0.41;69.14
72128;DHT22;60000;51.030;7.024;2022-12-18T13:59:16;-0.38;69.03
72128;DHT22;60000;51.030;7.024;2022-12-18T14:01:44;-0.39;68.96
72128;DHT22;60000;51.030;7.024;2022-12-18T14:04:31;-0.36;69.13
72128;DHT22;60000;51.030;7.024;2022-12-18T14:07:03;-0.38;69.23
72128;DHT22;60000;51.030;7.024;2022-12-18T14:09:31;-0.43;69.44
72128;DHT22;60000;51.030;7.024;2022-12-18T14:12:00;-0.38;69.14
72128;DHT22;60000;51.030;7.024;2022-12-18T14:14:46;-0.38;69.13
72128;DHT22;60000;51.030;7.024;2022-12-18T14:17:13;-0.43;69.59
72128;DHT22;60000;51.030;7.024;2022-12-18T14:19:44;-0.42;69.48
72128;DHT22;60000;51.030;7.024;2022-12-18T14:22:21;-0.41;69.24
72128;DHT22;60000;51.030;7.024;2022-12-18T14:25:16;-0.41;69.17
72128;DHT22;60000;51.030;7.024;2022-12-18T14:27:47;-0.49;69.75
72128;DHT22;60000;51.030;7.024;2022-12-18T14:30:25;-0.53;69.94
72128;DHT22;60000;51.030;7.024;2022-12-18T14:33:01;-0.49;69.45
72128;DHT22;60000;51.030;7.024;2022-12-18T14:35:27;-0.51;69.36
72128;DHT22;60000;51.030;7.024;2022-12-18T14:37:53;-0.58;69.60
72128;DHT22;60000;51.030;7.024;2022-12-18T14:40:18;-0.49;69.35
72128;DHT22;60000;51.030;7.024;2022-12-18T14:42:43;-0.62;69.94
72128;DHT22;60000;51.030;7.024;2022-12-18T14:45:38;-0.66;69.86
72128;DHT22;60000;51.030;7.024;2022-12-18T14:48:07;-0.59;69.58
72128;DHT22;60000;51.030;7.024;2022-12-18T14:50:33;-0.65;70.00
72128;DHT22;60000;51.030;7.024;2022-12-18T14:52:58;-0.69;70.31
72128;DHT22;60000;51.030;7.024;2022-12-18T14:55:24;-0.69;70.14
72128;DHT22;60000;51.030;7.024;2022-12-18T14:57:52;-0.73;70.34
72128;DHT22;60000;51.030;7.024;2022-12-18T15:00:21;-0.66;69.92
72128;DHT22;60000;51.030;7.024;2022-12-18T15:02:55;-0.65;70.13
72128;DHT22;60000;51.030;7.024;2022-12-18T15:05:30;-0.68;70.00
72128;DHT22;60000;51.030;7.024;2022-12-18T15:07:59;-0.69;69.95
72128;DHT22;60000;51.030;7.024;2022-12-18T15:10:32;-0.66;69.68
72128;DHT22;60000;51.030;7.024;2022-12-18T15:20:40;-0.76;70.20
72128;DHT22;60000;51.030;7.024;2022-12-18T15:25:47;-0.80;70.18
72128;DHT22;60000;51.030;7.024;2022-12-18T15:28:25;-0.82;70.19
72128;DHT22;60000;51.030;7.024;2022-12-18T15:36:20;-0.84;70.37
72128;DHT22;60000;51.030;7.024;2022-12-18T15:38:47;-0.84;70.45
72128;DHT22;60000;51.030;7.024;2022-12-18T15:41:18;-0.87;70.39
72128;DHT22;60000;51.030;7.024;2022-12-18T15:43:44;-0.90;70.54
72128;DHT22;60000;51.030;7.024;2022-12-18T15:46:15;-0.90;70.44
72128;DHT22;60000;51.030;7.024;2022-12-18T15:48:46;-0.86;70.36
72128;DHT22;60000;51.030;7.024;2022-12-18T15:51:20;-0.92;70.55
72128;DHT22;60000;51.030;7.024;2022-12-18T15:53:47;-0.92;70.61
72128;DHT22;60000;51.030;7.024;2022-12-18T15:56:15;-0.94;70.74
72128;DHT22;60000;51.030;7.024;2022-12-18T15:59:00;-0.94;70.83
72128;DHT22;60000;51.030;7.024;2022-12-18T16:01:28;-0.94;71.07
72128;DHT22;60000;51.030;7.024;2022-12-18T16:03:54;-0.96;71.24
72128;DHT22;60000;51.030;7.024;2022-12-18T16:06:20;-0.96;71.22
72128;DHT22;60000;51.030;7.024;2022-12-18T16:08:46;-0.97;71.32
72128;DHT22;60000;51.030;7.024;2022-12-18T16:13:45;-1.03;71.86
72128;DHT22;60000;51.030;7.024;2022-12-18T16:16:10;-1.07;72.22
72128;DHT22;60000;51.030;7.024;2022-12-18T16:18:35;-1.08;72.31
72128;DHT22;60000;51.030;7.024;2022-12-18T16:21:01;-1.10;72.75
72128;DHT22;60000;51.030;7.024;2022-12-18T16:23:26;-1.10;72.91
72128;DHT22;60000;51.030;7.024;2022-12-18T16:25:52;-1.10;72.96
72128;DHT22;60000;51.030;7.024;2022-12-18T16:28:17;-1.10;73.12
72128;DHT22;60000;51.030;7.024;2022-12-18T16:30:42;-1.10;73.36
72128;DHT22;60000;51.030;7.024;2022-12-18T16:33:10;-1.14;73.55
72128;DHT22;60000;51.030;7.024;2022-12-18T16:35:36;-1.17;73.84
72128;DHT22;60000;51.030;7.024;2022-12-18T16:38:02;-1.15;73.77
72128;DHT22;60000;51.030;7.024;2022-12-18T16:40:27;-1.14;73.93
72128;DHT22;60000;51.030;7.024;2022-12-18T16:42:52;-1.17;73.99
72128;DHT22;60000;51.030;7.024;2022-12-18T16:45:18;-1.18;74.27
72128;DHT22;60000;51.030;7.024;2022-12-18T16:47:44;-1.18;74.20
72128;DHT22;60000;51.030;7.024;2022-12-18T16:50:10;-1.20;74.23
72128;DHT22;60000;51.030;7.024;2022-12-18T16:52:35;-1.13;74.26
72128;DHT22;60000;51.030;7.024;2022-12-18T16:55:01;-1.18;74.36
72128;DHT22;60000;51.030;7.024;2022-12-18T16:57:26;-1.20;74.37
72128;DHT22;60000;51.030;7.024;2022-12-18T16:59:52;-1.20;74.45
72128;DHT22;60000;51.030;7.024;2022-12-18T17:02:20;-1.21;74.51
72128;DHT22;60000;51.030;7.024;2022-12-18T17:04:46;-1.24;74.74
72128;DHT22;60000;51.030;7.024;2022-12-18T17:07:12;-1.25;74.75
72128;DHT22;60000;51.030;7.024;2022-12-18T17:09:38;-1.27;74.70